createdAt,value
2019-04-30T00:02:20.651Z,75.20
2019-04-30T00:04:51.955Z,75.10
2019-04-30T00:07:21.595Z,75.30
2019-04-30T00:09:54.044Z,75.50
2019-04-30T00:12:22.746Z,75.30
2019-04-30T00:14:52.466Z,75.60
2019-04-30T00:17:22.124Z,75.80
2019-04-30T00:19:55.849Z,76.00
2019-04-30T00:22:33.102Z,76.00
2019-04-30T00:24:55.953Z,76.20
2019-04-30T00:27:30.150Z,76.60
2019-04-30T00:30:00.355Z,76.60
2019-04-30T00:32:29.149Z,76.20
2019-04-30T00:34:59.074Z,76.50
2019-04-30T00:37:28.834Z,76.70
2019-04-30T00:39:59.499Z,76.80
2019-04-30T00:42:30.063Z,76.40
2019-04-30T00:45:06.742Z,76.50
2019-04-30T00:47:32.345Z,76.60
2019-04-30T00:50:04.999Z,76.70
2019-04-30T00:52:37.331Z,76.70
2019-04-30T00:55:09.312Z,76.70
2019-04-30T00:57:43.720Z,76.80
2019-04-30T01:00:19.631Z,76.90
2019-04-30T01:02:46.896Z,76.80
2019-04-30T01:05:18.072Z,76.40
2019-04-30T01:07:51.594Z,76.40
2019-04-30T01:10:23.660Z,76.40
2019-04-30T01:12:51.522Z,76.50
2019-04-30T01:15:21.250Z,76.30
2019-04-30T01:17:53.742Z,76.40
2019-04-30T01:20:31.108Z,76.60
2019-04-30T01:22:58.564Z,76.50
2019-04-30T01:25:28.822Z,76.30
2019-04-30T01:27:58.921Z,76.00
2019-04-30T01:30:29.022Z,76.20
2019-04-30T01:33:00.920Z,75.80
2019-04-30T01:35:32.761Z,75.90
2019-04-30T01:38:04.003Z,75.70
2019-04-30T01:40:33.783Z,76.00
2019-04-30T01:43:03.223Z,76.10
2019-04-30T01:45:32.815Z,75.40
2019-04-30T01:48:08.811Z,75.00
2019-04-30T01:50:38.626Z,74.60
2019-04-30T01:53:11.413Z,75.30
2019-04-30T01:55:53.394Z,75.60
2019-04-30T01:58:24.784Z,75.90
2019-04-30T02:00:59.399Z,75.60
2019-04-30T02:03:29.533Z,75.70
2019-04-30T02:06:00.028Z,75.40
2019-04-30T02:08:29.796Z,74.70
2019-04-30T02:10:59.686Z,74.40
2019-04-30T02:13:34.187Z,74.40
2019-04-30T02:16:00.542Z,74.50
2019-04-30T02:18:30.270Z,74.30
2019-04-30T02:20:59.924Z,73.90
2019-04-30T02:23:29.864Z,73.70
2019-04-30T02:26:00.774Z,73.40
2019-04-30T02:28:30.886Z,73.80
2019-04-30T02:31:00.841Z,73.00
2019-04-30T02:33:33.591Z,72.90
2019-04-30T02:36:16.770Z,73.30
2019-04-30T02:38:49.402Z,72.10
2019-04-30T02:41:20.313Z,72.00
2019-04-30T02:43:51.980Z,71.80
2019-04-30T02:46:24.113Z,71.40
2019-04-30T02:48:55.512Z,71.10
2019-04-30T02:51:29.926Z,71.70
2019-04-30T02:54:03.124Z,71.30
2019-04-30T02:56:33.136Z,71.70
2019-04-30T02:59:04.070Z,71.40
2019-04-30T03:01:34.034Z,71.90
2019-04-30T03:04:03.671Z,71.90
2019-04-30T03:06:33.315Z,71.70
2019-04-30T03:09:05.647Z,72.50
2019-04-30T03:11:35.454Z,71.00
2019-04-30T03:14:05.558Z,71.10
2019-04-30T03:16:52.676Z,71.20
2019-04-30T03:19:24.176Z,72.10
2019-04-30T03:22:01.990Z,71.90
2019-04-30T03:24:31.603Z,70.90
2019-04-30T03:27:01.950Z,71.40
2019-04-30T03:29:31.491Z,71.90
2019-04-30T03:32:03.313Z,71.30
2019-04-30T03:34:33.338Z,72.00
2019-04-30T03:37:03.487Z,71.70
2019-04-30T03:39:34.062Z,71.90
2019-04-30T03:42:03.860Z,72.00
2019-04-30T03:44:33.599Z,71.80
2019-04-30T03:47:03.756Z,71.70
2019-04-30T03:49:33.183Z,72.40
2019-04-30T03:52:03.133Z,71.80
2019-04-30T03:54:33.234Z,71.70
2019-04-30T03:57:02.785Z,72.40
2019-04-30T03:59:32.646Z,72.50
2019-04-30T04:02:20.958Z,71.50
2019-04-30T04:04:55.130Z,71.30
2019-04-30T04:07:29.989Z,70.80
2019-04-30T04:10:19.506Z,70.70
2019-04-30T04:12:49.878Z,71.20
2019-04-30T04:15:20.062Z,70.90
2019-04-30T04:17:50.525Z,70.60
2019-04-30T04:20:20.530Z,70.70
2019-04-30T04:22:50.835Z,69.90
2019-04-30T04:25:20.696Z,71.00
2019-04-30T04:27:51.097Z,70.00
2019-04-30T04:30:21.205Z,70.40
2019-04-30T04:32:51.117Z,70.10
2019-04-30T04:35:21.057Z,71.00
2019-04-30T04:37:51.391Z,70.70
2019-04-30T04:40:21.364Z,70.20
2019-04-30T04:42:51.472Z,70.70
2019-04-30T04:45:20.925Z,70.60
2019-04-30T04:47:51.387Z,70.00
2019-04-30T04:50:21.041Z,70.50
2019-04-30T04:52:52.297Z,70.30
2019-04-30T04:55:22.359Z,70.50
2019-04-30T04:57:52.678Z,70.10
2019-04-30T05:00:22.426Z,70.50
2019-04-30T05:02:53.915Z,70.30
2019-04-30T05:05:23.459Z,71.20
2019-04-30T05:07:53.413Z,71.10
2019-04-30T05:10:23.455Z,70.60
2019-04-30T05:12:53.600Z,71.00
2019-04-30T05:15:23.493Z,70.90
2019-04-30T05:17:55.095Z,71.00
2019-04-30T05:20:24.732Z,70.90
2019-04-30T05:22:54.495Z,70.50
2019-04-30T05:25:24.240Z,70.40
2019-04-30T05:27:54.302Z,70.70
2019-04-30T05:30:23.835Z,71.10
2019-04-30T05:32:54.547Z,71.50
2019-04-30T05:35:24.093Z,71.80
2019-04-30T05:37:53.953Z,72.00
2019-04-30T05:40:23.465Z,72.40
2019-04-30T05:42:53.310Z,72.20
2019-04-30T05:45:23.906Z,71.80
2019-04-30T05:47:53.684Z,71.90
2019-04-30T05:50:23.943Z,71.00
2019-04-30T05:52:54.482Z,71.30
2019-04-30T05:55:23.935Z,70.70
2019-04-30T05:57:56.415Z,71.20
2019-04-30T06:00:25.392Z,70.60
2019-04-30T06:02:55.045Z,70.10
2019-04-30T06:05:24.848Z,70.40
2019-04-30T06:07:55.509Z,70.00
2019-04-30T06:10:35.966Z,69.50
2019-04-30T06:13:13.631Z,70.10
2019-04-30T06:15:56.643Z,71.00
2019-04-30T06:18:28.603Z,70.90
2019-04-30T06:20:59.540Z,69.60
2019-04-30T06:23:29.455Z,69.00
2019-04-30T06:26:09.349Z,68.90
2019-04-30T06:28:33.125Z,69.60
2019-04-30T06:31:03.214Z,70.70
2019-04-30T06:33:33.163Z,69.00
2019-04-30T06:36:04.354Z,69.50
2019-04-30T06:38:34.251Z,70.10
2019-04-30T06:41:04.790Z,69.90
2019-04-30T06:43:34.820Z,70.20
2019-04-30T06:46:04.966Z,69.90
2019-04-30T06:48:35.195Z,71.50
2019-04-30T06:51:04.901Z,71.50
2019-04-30T06:53:34.818Z,70.30
2019-04-30T06:56:05.024Z,70.20
2019-04-30T06:58:34.462Z,69.80
2019-04-30T07:01:04.119Z,70.20
2019-04-30T07:03:34.078Z,70.70
2019-04-30T07:06:04.386Z,71.50
2019-04-30T07:08:46.881Z,71.50
2019-04-30T07:11:23.277Z,71.60
2019-04-30T07:13:53.299Z,71.90
2019-04-30T07:16:22.860Z,70.50
2019-04-30T07:18:52.601Z,71.70
2019-04-30T07:21:22.322Z,71.90
2019-04-30T07:23:52.027Z,70.70
2019-04-30T07:26:24.310Z,70.90
2019-04-30T07:28:55.244Z,71.40
2019-04-30T07:31:25.051Z,70.20
2019-04-30T07:33:54.689Z,69.50
2019-04-30T07:36:42.518Z,70.80
2019-04-30T07:38:56.840Z,71.00
2019-04-30T07:41:26.497Z,71.00
2019-04-30T07:43:56.025Z,71.40
2019-04-30T07:46:26.554Z,71.70
2019-04-30T07:48:56.432Z,71.50
2019-04-30T07:51:27.136Z,70.70
2019-04-30T07:53:59.037Z,70.60
2019-04-30T07:56:34.920Z,70.40
2019-04-30T07:59:02.840Z,70.60
2019-04-30T08:01:32.273Z,70.20
2019-04-30T08:04:15.825Z,69.50
2019-04-30T08:06:45.294Z,70.00
2019-04-30T08:09:15.000Z,68.70
2019-04-30T08:11:44.455Z,68.20
2019-04-30T08:14:13.896Z,67.80
2019-04-30T08:16:43.946Z,68.20
2019-04-30T08:19:13.691Z,68.60
2019-04-30T08:21:43.349Z,69.20
2019-04-30T08:24:13.046Z,68.60
2019-04-30T08:26:42.706Z,66.70
2019-04-30T08:29:13.509Z,67.40
2019-04-30T08:31:43.591Z,67.20
2019-04-30T08:34:13.748Z,64.80
2019-04-30T08:36:43.498Z,65.50
2019-04-30T08:39:13.009Z,64.30
2019-04-30T08:41:43.680Z,65.70
2019-04-30T08:44:13.767Z,63.80
2019-04-30T08:46:43.518Z,66.00
2019-04-30T08:49:14.171Z,67.10
2019-04-30T08:51:44.302Z,65.50
2019-04-30T08:54:14.192Z,62.60
2019-04-30T08:56:44.334Z,64.40
2019-04-30T08:59:14.280Z,63.10
2019-04-30T09:01:44.015Z,61.00
2019-04-30T09:04:14.046Z,63.80
2019-04-30T09:06:44.394Z,66.20
2019-04-30T09:09:15.420Z,65.60
2019-04-30T09:11:53.078Z,63.70
2019-04-30T09:14:16.373Z,60.60
2019-04-30T09:16:46.220Z,62.20
2019-04-30T09:19:16.738Z,66.30
2019-04-30T09:21:46.578Z,64.70
2019-04-30T09:24:16.216Z,63.10
2019-04-30T09:26:45.674Z,61.10
2019-04-30T09:29:15.113Z,61.20
2019-04-30T09:31:44.576Z,62.30
2019-04-30T09:34:17.886Z,62.80
2019-04-30T09:36:46.482Z,59.10
2019-04-30T09:39:15.956Z,61.00
2019-04-30T09:41:45.679Z,63.20
2019-04-30T09:44:15.384Z,64.90
2019-04-30T09:46:45.348Z,60.20
2019-04-30T09:49:14.979Z,63.70
2019-04-30T09:51:45.145Z,63.20
2019-04-30T09:54:15.143Z,64.10
2019-04-30T09:56:45.412Z,59.40
2019-04-30T09:59:15.045Z,61.60
2019-04-30T10:01:44.937Z,61.30
2019-04-30T10:04:15.601Z,64.10
2019-04-30T10:06:46.155Z,62.80
2019-04-30T10:09:15.859Z,63.00
2019-04-30T10:12:05.191Z,64.20
2019-04-30T10:14:34.827Z,62.70
2019-04-30T10:17:06.291Z,63.00
2019-04-30T10:19:35.893Z,62.50
2019-04-30T10:22:06.293Z,64.40
2019-04-30T10:24:35.919Z,63.40
2019-04-30T10:27:10.765Z,64.40
2019-04-30T10:29:36.782Z,63.90
2019-04-30T10:32:08.715Z,62.30
2019-04-30T10:34:38.200Z,62.70
2019-04-30T10:37:09.096Z,63.80
2019-04-30T10:39:39.110Z,64.50
2019-04-30T10:42:08.963Z,63.40
2019-04-30T10:44:38.660Z,64.90
2019-04-30T10:47:09.332Z,63.70
2019-04-30T10:49:39.391Z,63.10
2019-04-30T10:52:32.448Z,62.80
2019-04-30T10:55:04.569Z,60.60
2019-04-30T10:57:33.731Z,62.60
2019-04-30T11:00:04.848Z,62.70
2019-04-30T11:02:34.704Z,62.30
2019-04-30T11:05:08.849Z,61.90
2019-04-30T11:07:38.600Z,60.10
2019-04-30T11:10:10.046Z,62.10
2019-04-30T11:12:39.973Z,62.10
2019-04-30T11:15:10.257Z,62.40
2019-04-30T11:17:40.098Z,62.10
2019-04-30T11:20:11.471Z,62.70
2019-04-30T11:22:41.677Z,61.20
2019-04-30T11:25:12.284Z,61.70
2019-04-30T11:27:43.335Z,63.00
2019-04-30T11:30:21.428Z,63.10
2019-04-30T11:32:45.015Z,63.10
2019-04-30T11:35:15.487Z,62.80
2019-04-30T11:37:44.869Z,62.90
2019-04-30T11:40:15.509Z,60.00
2019-04-30T11:42:45.063Z,58.50
2019-04-30T11:45:19.358Z,62.10
2019-04-30T11:47:53.553Z,63.60
2019-04-30T11:50:21.310Z,63.90
2019-04-30T11:52:50.950Z,64.10
2019-04-30T11:55:20.701Z,63.00
2019-04-30T11:57:50.445Z,62.80
2019-04-30T12:00:22.880Z,62.70
2019-04-30T12:02:53.149Z,61.70
2019-04-30T12:05:23.509Z,62.90
2019-04-30T12:07:54.904Z,64.00
2019-04-30T12:10:29.454Z,61.20
2019-04-30T12:12:58.678Z,61.80
2019-04-30T12:15:29.118Z,63.40
2019-04-30T12:17:59.087Z,62.00
2019-04-30T12:20:28.686Z,62.40
2019-04-30T12:22:59.326Z,61.70
2019-04-30T12:25:30.390Z,63.20
2019-04-30T12:28:00.162Z,62.80
2019-04-30T12:30:29.903Z,63.20
2019-04-30T12:33:00.597Z,62.50
2019-04-30T12:35:31.365Z,62.40
2019-04-30T12:38:00.845Z,62.50
2019-04-30T12:40:32.343Z,61.20
2019-04-30T12:43:02.156Z,61.00
2019-04-30T12:45:31.897Z,62.20
2019-04-30T12:48:03.403Z,59.80
2019-04-30T12:50:40.420Z,61.10
2019-04-30T12:53:12.163Z,59.50
2019-04-30T12:56:00.407Z,59.00
2019-04-30T12:58:30.540Z,57.50
2019-04-30T13:01:00.385Z,59.10
2019-04-30T13:03:30.918Z,59.20
2019-04-30T13:06:01.613Z,55.70
2019-04-30T13:08:32.695Z,56.00
2019-04-30T13:11:03.288Z,58.70
2019-04-30T13:13:33.331Z,58.20
2019-04-30T13:16:03.823Z,59.90
2019-04-30T13:18:33.253Z,59.50
2019-04-30T13:21:03.128Z,60.00
2019-04-30T13:23:33.512Z,60.20
2019-04-30T13:26:03.154Z,60.00
2019-04-30T13:28:51.051Z,62.30
2019-04-30T13:31:20.804Z,61.30
2019-04-30T13:33:52.453Z,59.50
2019-04-30T13:36:22.911Z,60.90
2019-04-30T13:38:56.906Z,57.90
2019-04-30T13:41:34.114Z,59.20
2019-04-30T13:44:04.306Z,59.20
2019-04-30T13:46:34.475Z,58.00
2019-04-30T13:49:04.183Z,58.40
2019-04-30T13:51:33.926Z,56.40
2019-04-30T13:54:03.578Z,59.70
2019-04-30T13:56:33.234Z,59.10
2019-04-30T13:59:02.792Z,61.40
2019-04-30T14:01:32.424Z,60.20
2019-04-30T14:04:21.559Z,59.90
2019-04-30T14:07:10.728Z,59.10
2019-04-30T14:09:41.418Z,57.30
2019-04-30T14:12:11.135Z,58.20
2019-04-30T14:14:41.043Z,60.30
2019-04-30T14:17:11.761Z,61.20
2019-04-30T14:19:41.402Z,59.60
2019-04-30T14:22:12.836Z,60.10
2019-04-30T14:24:42.292Z,58.30
2019-04-30T14:27:12.408Z,57.70
2019-04-30T14:29:42.488Z,58.50
2019-04-30T14:32:12.925Z,60.10
2019-04-30T14:34:42.734Z,59.60
2019-04-30T14:37:12.458Z,54.70
2019-04-30T14:39:42.322Z,57.30
2019-04-30T14:42:12.869Z,57.50
2019-04-30T14:44:44.167Z,59.00
2019-04-30T14:47:26.222Z,57.90
2019-04-30T14:50:09.874Z,57.40
2019-04-30T14:52:51.817Z,54.70
2019-04-30T14:55:34.213Z,56.50
2019-04-30T14:58:09.661Z,55.50
2019-04-30T15:00:47.310Z,57.20
2019-04-30T15:03:19.402Z,54.20
2019-04-30T15:05:51.702Z,56.00
2019-04-30T15:08:21.843Z,54.10
2019-04-30T15:10:51.970Z,54.10
2019-04-30T15:13:22.412Z,53.00
2019-04-30T15:15:52.171Z,51.60
2019-04-30T15:18:21.909Z,53.50
2019-04-30T15:20:51.897Z,54.10
2019-04-30T15:23:39.523Z,53.80
2019-04-30T15:26:21.713Z,51.90
2019-04-30T15:28:41.465Z,52.60
2019-04-30T15:31:11.304Z,53.70
2019-04-30T15:33:42.902Z,52.60
2019-04-30T15:36:13.228Z,49.10
2019-04-30T15:39:03.144Z,51.20
2019-04-30T15:41:32.774Z,49.70
2019-04-30T15:44:02.639Z,49.90
2019-04-30T15:46:32.812Z,48.50
2019-04-30T15:49:02.599Z,50.10
2019-04-30T15:51:33.226Z,50.70
2019-04-30T15:54:03.805Z,50.10
2019-04-30T15:56:37.083Z,44.70
2019-04-30T15:59:08.879Z,46.20
2019-04-30T16:01:40.083Z,48.80
2019-04-30T16:04:11.357Z,47.60
2019-04-30T16:06:42.547Z,49.50
2019-04-30T16:09:30.005Z,48.60
2019-04-30T16:12:03.970Z,45.30
2019-04-30T16:14:39.597Z,46.40
2019-04-30T16:17:11.076Z,44.70
2019-04-30T16:19:41.229Z,45.30
2019-04-30T16:22:11.450Z,46.80
2019-04-30T16:24:41.277Z,46.70
2019-04-30T16:27:11.103Z,44.10
2019-04-30T16:29:40.936Z,46.30
2019-04-30T16:32:10.455Z,45.40
2019-04-30T16:34:40.454Z,43.40
2019-04-30T16:37:09.979Z,43.20
2019-04-30T16:39:39.817Z,43.50
2019-04-30T16:42:10.218Z,42.90
2019-04-30T16:44:40.062Z,43.70
2019-04-30T16:47:14.409Z,42.70
2019-04-30T16:49:41.659Z,44.10
2019-04-30T16:52:11.482Z,45.70
2019-04-30T16:54:41.317Z,47.50
2019-04-30T16:57:11.860Z,48.90
2019-04-30T16:59:42.431Z,49.90
2019-04-30T17:02:13.888Z,52.10
2019-04-30T17:04:51.387Z,54.90
2019-04-30T17:07:38.792Z,54.00
2019-04-30T17:10:22.143Z,56.10
2019-04-30T17:13:11.806Z,54.90
2019-04-30T17:15:46.059Z,55.60
2019-04-30T17:18:15.503Z,56.90
2019-04-30T17:20:46.252Z,56.50
2019-04-30T17:23:16.020Z,58.00
2019-04-30T17:25:46.267Z,57.30
2019-04-30T17:28:16.017Z,58.20
2019-04-30T17:30:46.030Z,57.40
2019-04-30T17:33:15.577Z,57.80
2019-04-30T17:35:45.139Z,58.50
2019-04-30T17:38:14.792Z,58.60
2019-04-30T17:40:44.326Z,59.00
2019-04-30T17:43:14.162Z,57.20
2019-04-30T17:45:43.900Z,57.80
2019-04-30T17:48:13.361Z,56.30
2019-04-30T17:50:42.985Z,57.40
2019-04-30T17:53:12.719Z,57.90
2019-04-30T17:55:42.368Z,57.60
2019-04-30T17:58:12.325Z,60.10
2019-04-30T18:00:43.486Z,57.60
2019-04-30T18:03:13.214Z,60.20
2019-04-30T18:05:42.661Z,60.70
2019-04-30T18:08:12.118Z,60.10
2019-04-30T18:10:41.875Z,60.10
2019-04-30T18:13:11.814Z,61.70
2019-04-30T18:15:41.651Z,61.40
2019-04-30T18:18:13.143Z,62.40
2019-04-30T18:20:56.960Z,62.60
2019-04-30T18:23:29.236Z,63.60
2019-04-30T18:26:00.626Z,62.90
2019-04-30T18:28:30.069Z,63.40
2019-04-30T18:30:59.797Z,64.20
2019-04-30T18:33:29.434Z,62.10
2019-04-30T18:35:59.670Z,63.70
2019-04-30T18:38:31.118Z,63.80
2019-04-30T18:41:01.109Z,62.90
2019-04-30T18:43:30.846Z,63.90
2019-04-30T18:46:01.317Z,63.20
2019-04-30T18:48:30.858Z,64.00
2019-04-30T18:51:00.843Z,64.10
2019-04-30T18:53:32.024Z,63.70
2019-04-30T18:56:01.575Z,63.70
2019-04-30T18:58:39.971Z,62.60
2019-04-30T19:01:03.158Z,63.60
2019-04-30T19:03:32.600Z,64.00
2019-04-30T19:06:03.967Z,63.30
2019-04-30T19:08:39.479Z,63.70
2019-04-30T19:11:28.930Z,63.90
2019-04-30T19:14:00.388Z,64.90
2019-04-30T19:16:44.015Z,65.30
2019-04-30T19:19:15.392Z,64.90
2019-04-30T19:21:45.225Z,65.70
2019-04-30T19:24:15.043Z,66.10
2019-04-30T19:26:44.795Z,64.70
2019-04-30T19:29:15.496Z,64.70
2019-04-30T19:31:45.461Z,65.20
2019-04-30T19:34:15.124Z,65.80
2019-04-30T19:36:44.881Z,66.20
2019-04-30T19:39:16.203Z,66.10
2019-04-30T19:41:45.921Z,66.50
2019-04-30T19:44:16.031Z,66.80
2019-04-30T19:46:46.135Z,67.30
2019-04-30T19:49:15.840Z,67.10
2019-04-30T19:51:45.238Z,67.20
2019-04-30T19:54:14.867Z,67.20
2019-04-30T19:56:44.495Z,67.50
2019-04-30T19:59:13.956Z,66.90
2019-04-30T20:01:43.831Z,67.60
2019-04-30T20:04:13.471Z,67.90
2019-04-30T20:06:43.466Z,68.80
2019-04-30T20:09:13.577Z,68.30
2019-04-30T20:11:43.232Z,68.20
2019-04-30T20:14:13.110Z,69.20
2019-04-30T20:16:43.211Z,68.70
2019-04-30T20:19:13.154Z,68.70
2019-04-30T20:21:48.664Z,69.00
2019-04-30T20:24:14.981Z,68.60
2019-04-30T20:26:44.531Z,68.70
2019-04-30T20:29:14.231Z,68.10
2019-04-30T20:31:43.785Z,68.50
2019-04-30T20:34:13.559Z,68.80
2019-04-30T20:36:43.006Z,68.80
2019-04-30T20:39:20.017Z,68.10
2019-04-30T20:41:51.200Z,68.90
2019-04-30T20:44:20.928Z,69.30
2019-04-30T20:46:50.587Z,69.60
2019-04-30T20:49:20.286Z,69.60
2019-04-30T20:51:55.619Z,69.50
2019-04-30T20:54:21.577Z,69.90
2019-04-30T20:56:51.843Z,70.50
2019-04-30T20:59:21.784Z,70.20
2019-04-30T21:01:51.563Z,70.00
2019-04-30T21:04:21.408Z,70.70
2019-04-30T21:06:52.353Z,71.00
2019-04-30T21:09:21.865Z,71.40
2019-04-30T21:11:51.725Z,69.60
2019-04-30T21:14:21.468Z,69.90
2019-04-30T21:16:51.633Z,69.80
2019-04-30T21:19:21.441Z,70.40
2019-04-30T21:21:51.197Z,70.50
2019-04-30T21:24:21.508Z,70.50
2019-04-30T21:26:51.256Z,70.40
2019-04-30T21:29:20.637Z,69.40
2019-04-30T21:32:08.965Z,70.00
2019-04-30T21:34:56.786Z,69.60
2019-04-30T21:37:26.716Z,69.60
2019-04-30T21:39:58.579Z,69.90
2019-04-30T21:42:28.460Z,69.50
2019-04-30T21:44:58.516Z,69.50
2019-04-30T21:47:28.238Z,69.90
2019-04-30T21:49:57.878Z,70.00
2019-04-30T21:52:27.638Z,70.00
2019-04-30T21:54:57.087Z,70.60
2019-04-30T21:57:27.237Z,70.60
2019-04-30T21:59:58.680Z,70.50
2019-04-30T22:02:28.114Z,70.00
2019-04-30T22:04:58.276Z,70.30
2019-04-30T22:07:29.463Z,70.50
2019-04-30T22:09:59.380Z,70.40
2019-04-30T22:12:31.126Z,70.60
2019-04-30T22:15:01.130Z,70.00
2019-04-30T22:17:31.080Z,70.80
2019-04-30T22:20:00.727Z,70.30
2019-04-30T22:22:30.282Z,70.80
2019-04-30T22:24:59.918Z,71.00
2019-04-30T22:27:29.678Z,71.00
2019-04-30T22:29:59.423Z,71.30
2019-04-30T22:32:28.939Z,71.40
2019-04-30T22:35:00.109Z,70.60
2019-04-30T22:37:29.961Z,71.40
2019-04-30T22:40:02.246Z,71.50
2019-04-30T22:42:33.705Z,71.60
2019-04-30T22:45:07.395Z,71.50
2019-04-30T22:47:37.235Z,71.20
2019-04-30T22:50:08.809Z,71.60
2019-04-30T22:52:38.546Z,71.10
2019-04-30T22:55:08.440Z,70.80
2019-04-30T22:57:38.076Z,72.00
2019-04-30T23:00:10.959Z,72.10
2019-04-30T23:02:41.986Z,72.00
2019-04-30T23:05:13.438Z,71.50
2019-04-30T23:07:43.305Z,72.10
2019-04-30T23:10:13.235Z,72.00
2019-04-30T23:12:43.239Z,72.30
2019-04-30T23:15:14.134Z,72.30
2019-04-30T23:17:43.772Z,72.20
2019-04-30T23:20:13.615Z,72.30
2019-04-30T23:22:43.351Z,72.90
2019-04-30T23:25:12.970Z,72.40
2019-04-30T23:27:42.619Z,72.30
2019-04-30T23:30:13.517Z,72.60
2019-04-30T23:32:42.960Z,72.70
2019-04-30T23:35:13.864Z,72.50
2019-04-30T23:37:43.401Z,72.40
2019-04-30T23:40:28.450Z,72.40
2019-04-30T23:42:58.318Z,72.30
2019-04-30T23:45:27.871Z,71.20
2019-04-30T23:47:57.512Z,72.10
2019-04-30T23:50:27.065Z,72.00
2019-04-30T23:52:56.789Z,71.60
2019-04-30T23:55:26.742Z,71.80
2019-04-30T23:57:56.184Z,71.20
